Time;durP1;ratioP1;P1;durP2;ratioP2;P2;SDS_P1;SDS_P2;PMS_P1;PMS_P2;Temp;Humidity;BMP_temperature;BMP_pressure;BME280_temperature;BME280_humidity;BME280_pressure;Samples;Min_cycle;Max_cycle;Signal;HPM_P1;HPM_P2
2022/10/06 00:01:18;;;;;;;4.40;3.00;;;8.80;99.90;;;;;;4997414;28;20022;-86
2022/10/06 00:03:45;;;;;;;3.55;2.60;;;8.80;99.90;;;;;;4994994;28;20034;-85
2022/10/06 00:06:13;;;;;;;2.73;2.20;;;8.80;99.90;;;;;;5007374;28;20019;-85
2022/10/06 00:08:41;;;;;;;4.13;3.35;;;8.80;99.90;;;;;;4998541;28;20084;-85
2022/10/06 00:11:09;;;;;;;3.42;2.65;;;8.80;99.90;;;;;;4994596;28;20046;-84
2022/10/06 00:13:35;;;;;;;;;;;8.90;99.90;;;;;;4993910;28;20038;-83
2022/10/06 00:16:01;;;;;;;2.70;2.50;;;8.80;99.90;;;;;;4996772;28;19957;-85
2022/10/06 00:18:28;;;;;;;3.47;2.70;;;8.80;99.90;;;;;;4996276;28;20101;-85
2022/10/06 00:21:00;;;;;;;3.75;2.63;;;8.80;99.90;;;;;;4996422;28;20084;-85
2022/10/06 00:23:27;;;;;;;4.03;2.60;;;8.80;99.90;;;;;;4996208;28;20044;-85
2022/10/06 00:25:54;;;;;;;2.92;2.50;;;8.80;99.90;;;;;;4996335;28;20045;-84
2022/10/06 00:28:20;;;;;;;4.20;2.25;;;8.80;99.90;;;;;;4996450;28;20023;-85
2022/10/06 00:30:46;;;;;;;3.15;2.35;;;8.90;99.90;;;;;;4996848;28;20041;-84
2022/10/06 00:33:14;;;;;;;3.67;2.33;;;8.90;99.90;;;;;;4997188;28;20373;-84
2022/10/06 00:35:42;;;;;;;4.72;2.45;;;8.90;99.90;;;;;;4997414;28;20352;-84
2022/10/06 00:38:10;;;;;;;;;;;8.90;99.90;;;;;;4998533;28;20026;-82
2022/10/06 00:40:41;;;;;;;;;;;8.90;99.90;;;;;;4996310;28;20004;-83
2022/10/06 00:43:39;;;;;;;3.40;2.63;;;9.00;99.90;;;;;;4997032;28;19913;-84
2022/10/06 00:46:08;;;;;;;4.38;2.47;;;9.00;99.90;;;;;;4985621;28;20018;-84
2022/10/06 00:48:35;;;;;;;3.92;2.45;;;9.00;99.90;;;;;;5005124;28;20037;-84
2022/10/06 00:51:01;;;;;;;5.32;2.53;;;9.00;99.90;;;;;;5002190;28;20074;-85
2022/10/06 00:53:29;;;;;;;2.67;2.47;;;9.00;99.90;;;;;;5018865;28;20038;-84
2022/10/06 00:55:56;;;;;;;3.30;2.25;;;9.10;99.90;;;;;;5003849;28;20031;-84
2022/10/06 00:58:22;;;;;;;4.65;2.45;;;9.10;99.90;;;;;;4998694;28;20030;-84
2022/10/06 01:00:53;;;;;;;4.63;2.83;;;9.10;99.90;;;;;;4985336;28;20010;-84
2022/10/06 01:03:29;;;;;;;3.80;2.70;;;9.10;99.90;;;;;;4998205;28;20507;-85
2022/10/06 01:05:56;;;;;;;3.42;2.55;;;9.10;99.90;;;;;;5001519;28;20026;-84
2022/10/06 01:08:23;;;;;;;4.55;2.80;;;9.10;99.90;;;;;;4998149;28;20528;-85
2022/10/06 01:10:49;;;;;;;3.33;2.78;;;9.10;99.90;;;;;;5001871;28;20027;-83
2022/10/06 01:13:16;;;;;;;2.92;2.25;;;9.10;99.90;;;;;;4996889;28;20073;-84
2022/10/06 01:16:04;;;;;;;5.20;2.97;;;9.10;99.90;;;;;;4995654;28;20037;-84
2022/10/06 01:18:32;;;;;;;7.00;2.80;;;9.10;99.90;;;;;;4995033;28;20031;-83
2022/10/06 01:21:30;;;;;;;2.90;2.40;;;9.10;99.90;;;;;;4994713;28;20314;-84
2022/10/06 01:23:56;;;;;;;2.40;2.08;;;9.10;99.90;;;;;;4995169;28;20080;-84
2022/10/06 01:26:24;;;;;;;4.90;2.72;;;9.20;99.90;;;;;;4994643;28;20060;-85
2022/10/06 01:28:50;;;;;;;4.45;2.58;;;9.20;99.90;;;;;;4993742;28;20027;-83
2022/10/06 01:31:16;;;;;;;3.58;2.55;;;9.20;99.90;;;;;;4977312;28;20022;-83
2022/10/06 01:33:42;;;;;;;3.47;2.28;;;9.20;99.90;;;;;;4994933;28;20375;-84
2022/10/06 01:36:08;;;;;;;3.35;2.28;;;9.20;99.90;;;;;;4995026;28;20101;-85
2022/10/06 01:38:35;;;;;;;6.13;2.50;;;9.20;99.90;;;;;;4994887;28;20026;-83
2022/10/06 01:41:01;;;;;;;2.92;2.30;;;9.10;99.90;;;;;;4976401;28;20026;-86
2022/10/06 01:43:27;;;;;;;3.08;2.55;;;9.10;99.90;;;;;;4995560;28;20049;-83
2022/10/06 01:45:57;;;;;;;3.60;2.17;;;9.10;99.90;;;;;;4996059;28;20502;-83
2022/10/06 01:48:23;;;;;;;3.17;2.08;;;9.20;99.90;;;;;;4994696;28;20026;-83
2022/10/06 01:50:49;;;;;;;2.83;2.40;;;9.10;99.90;;;;;;4977159;28;20026;-84
2022/10/06 01:53:15;;;;;;;5.88;2.28;;;9.10;99.90;;;;;;4994449;28;20088;-84
2022/10/06 01:55:41;;;;;;;2.88;2.58;;;9.10;99.90;;;;;;4996512;28;20653;-84
2022/10/06 01:58:08;;;;;;;4.97;2.38;;;9.10;99.90;;;;;;4974881;28;20030;-84
2022/10/06 02:00:34;;;;;;;2.53;2.20;;;9.20;99.90;;;;;;4995863;28;20026;-84
2022/10/06 02:03:00;;;;;;;3.95;2.40;;;9.20;99.90;;;;;;4993523;28;20053;-85
2022/10/06 02:05:26;;;;;;;3.33;2.22;;;9.20;99.90;;;;;;4994280;28;20432;-84
2022/10/06 02:07:52;;;;;;;2.40;2.10;;;9.20;99.90;;;;;;4994205;28;20036;-84
2022/10/06 02:10:18;;;;;;;3.10;2.10;;;9.20;99.90;;;;;;4976433;28;20014;-85
2022/10/06 02:12:48;;;;;;;3.28;2.20;;;9.30;99.90;;;;;;4976134;28;20142;-83
2022/10/06 02:15:14;;;;;;;3.03;2.72;;;9.20;99.90;;;;;;4992693;28;20080;-85
2022/10/06 02:17:40;;;;;;;5.22;2.88;;;9.20;99.90;;;;;;4995050;28;20065;-84
2022/10/06 02:20:06;;;;;;;3.47;2.03;;;9.20;99.90;;;;;;4994496;28;20052;-84
2022/10/06 02:22:38;;;;;;;4.47;3.42;;;9.20;99.90;;;;;;4994510;28;20084;-85
2022/10/06 02:25:04;;;;;;;4.20;2.40;;;9.20;99.90;;;;;;4976324;28;20029;-85
2022/10/06 02:27:30;;;;;;;3.47;2.58;;;9.20;99.90;;;;;;4996076;28;20062;-86
2022/10/06 02:29:57;;;;;;;3.92;2.95;;;9.30;99.90;;;;;;4977678;28;20021;-84
2022/10/06 02:32:23;;;;;;;6.05;3.22;;;9.30;99.90;;;;;;4993102;28;20022;-85
2022/10/06 02:34:49;;;;;;;7.13;2.88;;;9.30;99.90;;;;;;4994000;28;20475;-86
2022/10/06 02:37:16;;;;;;;4.32;2.97;;;9.40;99.90;;;;;;4994291;28;20189;-85
2022/10/06 02:39:42;;;;;;;3.70;2.88;;;9.40;99.90;;;;;;5008571;28;20070;-84
2022/10/06 02:42:07;;;;;;;4.35;3.10;;;9.40;99.90;;;;;;5016210;28;20018;-84
2022/10/06 02:44:33;;;;;;;3.90;2.70;;;9.50;99.90;;;;;;5006014;28;20031;-85
2022/10/06 02:46:59;;;;;;;4.00;3.30;;;9.50;99.90;;;;;;4985581;28;20089;-83
2022/10/06 02:49:25;;;;;;;4.47;2.75;;;9.50;99.90;;;;;;4991530;28;20019;-83
2022/10/06 02:51:51;;;;;;;3.45;3.08;;;9.50;99.90;;;;;;4999658;28;20027;-83
2022/10/06 02:54:17;;;;;;;3.75;2.78;;;9.40;99.90;;;;;;5001873;28;20018;-84
2022/10/06 02:56:42;;;;;;;3.90;2.83;;;9.40;99.90;;;;;;4994925;28;20022;-83
2022/10/06 02:59:08;;;;;;;4.63;3.47;;;9.40;99.90;;;;;;4994969;28;20365;-84
2022/10/06 03:01:34;;;;;;;5.93;3.83;;;9.50;99.90;;;;;;4997167;28;20511;-85
2022/10/06 03:04:00;;;;;;;6.82;4.60;;;9.50;99.90;;;;;;4978438;28;20026;-82
2022/10/06 03:06:28;;;;;;;9.60;5.50;;;9.50;99.90;;;;;;4975565;28;20113;-82
2022/10/06 03:08:59;;;;;;;7.82;5.90;;;9.50;99.90;;;;;;4993353;28;20594;-84
2022/10/06 03:11:28;;;;;;;11.20;5.80;;;9.50;99.90;;;;;;4991845;28;20046;-83
2022/10/06 03:13:54;;;;;;;10.27;6.70;;;9.40;99.90;;;;;;4994642;28;20365;-84
2022/10/06 03:16:26;;;;;;;9.73;7.05;;;9.50;99.90;;;;;;4993311;28;20023;-85
2022/10/06 03:18:55;;;;;;;12.38;8.68;;;9.50;99.90;;;;;;4992416;28;20033;-87
2022/10/06 03:21:23;;;;;;;8.75;6.65;;;9.50;99.90;;;;;;4978007;28;20369;-86
2022/10/06 03:23:52;;;;;;;10.23;7.00;;;9.40;99.90;;;;;;4993216;28;20037;-84
2022/10/06 03:26:20;;;;;;;12.10;7.38;;;9.40;99.90;;;;;;4993371;28;20102;-84
2022/10/06 03:28:46;;;;;;;10.75;6.53;;;9.40;99.90;;;;;;4992737;28;20431;-85
2022/10/06 03:31:13;;;;;;;8.65;6.60;;;9.40;99.90;;;;;;4991907;28;20484;-86
2022/10/06 03:33:39;;;;;;;7.13;5.70;;;9.40;99.90;;;;;;4993386;28;20022;-86
2022/10/06 03:36:13;;;;;;;11.05;6.40;;;9.40;99.90;;;;;;4992943;28;20032;-87
2022/10/06 03:38:40;;;;;;;9.88;6.10;;;9.30;99.90;;;;;;4993620;28;20026;-83
2022/10/06 03:41:13;;;;;;;14.70;7.82;;;9.40;99.90;;;;;;4992948;28;20041;-85
2022/10/06 03:43:41;;;;;;;8.35;7.03;;;9.40;99.90;;;;;;4993445;28;20125;-85
2022/10/06 03:46:10;;;;;;;11.43;7.68;;;9.40;99.90;;;;;;4993726;28;20014;-84
2022/10/06 03:48:36;;;;;;;11.27;8.38;;;9.40;99.90;;;;;;4991282;28;20373;-85
2022/10/06 03:51:11;;;;;;;11.23;9.60;;;9.50;99.90;;;;;;4993115;28;20026;-84
2022/10/06 03:53:37;;;;;;;10.38;8.48;;;9.50;99.90;;;;;;4981654;28;20377;-85
2022/10/06 03:56:10;;;;;;;11.23;8.55;;;9.50;99.90;;;;;;4992813;28;20417;-84
2022/10/06 03:58:38;;;;;;;10.80;7.25;;;9.50;99.90;;;;;;4991413;28;20030;-84
2022/10/06 04:01:07;;;;;;;9.50;7.43;;;9.50;99.90;;;;;;4974938;28;20025;-84
2022/10/06 04:03:34;;;;;;;9.80;7.55;;;9.50;99.90;;;;;;4993076;28;20137;-85
2022/10/06 04:06:02;;;;;;;10.87;7.90;;;9.60;99.90;;;;;;4992968;28;20388;-85
2022/10/06 04:08:29;;;;;;;8.95;7.05;;;9.60;99.90;;;;;;4982894;28;20026;-84
2022/10/06 04:11:06;;;;;;;7.03;6.32;;;9.70;99.90;;;;;;4992627;28;20101;-84
2022/10/06 04:13:32;;;;;;;7.25;6.45;;;9.70;99.90;;;;;;4993230;28;20391;-84
2022/10/06 04:15:58;;;;;;;7.65;6.35;;;9.70;99.90;;;;;;5003153;28;20041;-84
2022/10/06 04:18:24;;;;;;;6.93;5.85;;;9.70;99.90;;;;;;5004754;28;20472;-85
2022/10/06 04:20:49;;;;;;;8.15;5.80;;;9.70;99.90;;;;;;4995101;28;20026;-85
2022/10/06 04:23:15;;;;;;;7.97;6.70;;;9.70;99.90;;;;;;4996974;28;20388;-83
2022/10/06 04:25:41;;;;;;;9.07;5.75;;;9.70;99.90;;;;;;5003778;28;20053;-85
2022/10/06 04:28:07;;;;;;;9.32;5.60;;;9.70;99.90;;;;;;5005355;28;20033;-84
2022/10/06 04:30:33;;;;;;;11.32;6.18;;;9.70;99.90;;;;;;4999606;28;20076;-88
2022/10/06 04:32:59;;;;;;;7.78;6.63;;;9.80;99.90;;;;;;4997436;28;20026;-84
2022/10/06 04:35:26;;;;;;;6.65;5.95;;;9.70;99.90;;;;;;4997454;28;20428;-84
2022/10/06 04:37:54;;;;;;;7.72;6.10;;;9.80;99.90;;;;;;4995976;28;20026;-84
2022/10/06 04:40:20;;;;;;;6.60;5.60;;;9.80;99.90;;;;;;4995227;28;20053;-83
2022/10/06 04:42:48;;;;;;;7.07;5.57;;;9.80;99.90;;;;;;4995564;28;20400;-84
2022/10/06 04:45:13;;;;;;;6.15;5.38;;;9.80;99.90;;;;;;4997046;28;20027;-84
2022/10/06 04:47:39;;;;;;;9.75;6.80;;;9.90;99.90;;;;;;4998679;28;20110;-85
2022/10/06 04:50:05;;;;;;;9.50;6.35;;;9.90;99.90;;;;;;5010270;28;20037;-83
2022/10/06 04:52:31;;;;;;;9.32;6.25;;;10.00;99.90;;;;;;5016131;28;20601;-84
2022/10/06 04:54:57;;;;;;;6.85;6.10;;;10.10;99.90;;;;;;4996098;28;20030;-84
2022/10/06 04:57:23;;;;;;;12.10;6.50;;;10.10;99.90;;;;;;4995728;28;20029;-85
2022/10/06 05:02:33;;;;;;;8.32;6.05;;;10.00;99.90;;;;;;4995672;28;20080;-84
2022/10/06 05:04:59;;;;;;;7.78;5.38;;;10.10;99.90;;;;;;4995380;28;20026;-83
2022/10/06 05:07:35;;;;;;;10.05;5.80;;;10.10;99.90;;;;;;4977780;28;20550;-85
2022/10/06 05:10:01;;;;;;;7.47;5.28;;;10.10;99.90;;;;;;4995320;28;20022;-82
2022/10/06 05:12:29;;;;;;;6.82;5.30;;;10.20;99.90;;;;;;4995537;28;20050;-85
2022/10/06 05:15:00;;;;;;;7.82;5.85;;;10.20;99.90;;;;;;4977528;28;20030;-83
2022/10/06 05:17:32;;;;;;;6.72;5.03;;;10.30;99.90;;;;;;4995105;28;20098;-83
2022/10/06 05:19:57;;;;;;;8.60;4.68;;;10.30;99.90;;;;;;4998184;28;20034;-83
2022/10/06 05:22:23;;;;;;;7.53;5.10;;;10.40;99.90;;;;;;4981087;28;20042;-83
2022/10/06 05:24:57;;;;;;;5.40;4.45;;;10.40;99.90;;;;;;4996302;28;20019;-84
2022/10/06 05:27:25;;;;;;;6.70;4.78;;;10.40;99.90;;;;;;4996838;28;20026;-86
2022/10/06 05:30:01;;;;;;;;;;;;;;;;;;;;;
2022/10/06 05:32:27;;;;;;;6.47;4.85;;;10.40;99.90;;;;;;4994786;28;20491;-86
2022/10/06 05:34:53;;;;;;;5.88;4.45;;;10.40;99.90;;;;;;4994571;28;20098;-85
2022/10/06 05:37:19;;;;;;;6.40;4.47;;;10.50;99.90;;;;;;4994675;28;20022;-85
2022/10/06 05:39:45;;;;;;;6.28;4.47;;;10.50;99.90;;;;;;4996234;28;20037;-85
2022/10/06 05:42:11;;;;;;;6.45;5.18;;;10.50;99.90;;;;;;4998756;28;20022;-85
2022/10/06 05:44:37;;;;;;;6.25;4.32;;;10.50;99.90;;;;;;5000251;28;20027;-87
2022/10/06 05:47:03;;;;;;;7.55;4.75;;;10.60;99.90;;;;;;4995453;28;20057;-87
2022/10/06 05:49:46;;;;;;;5.53;4.68;;;10.50;99.90;;;;;;5003416;28;20333;-85
2022/10/06 05:52:12;;;;;;;6.45;4.88;;;10.50;99.90;;;;;;5006589;28;20038;-85
2022/10/06 05:54:40;;;;;;;6.15;4.93;;;10.60;99.90;;;;;;4996038;28;20592;-86
2022/10/06 05:57:09;;;;;;;6.97;4.55;;;10.70;99.90;;;;;;4995350;28;20035;-87
2022/10/06 05:59:35;;;;;;;9.57;5.53;;;10.70;99.90;;;;;;4993589;28;20109;-86
2022/10/06 06:02:00;;;;;;;5.93;4.95;;;10.70;99.90;;;;;;4977706;28;20121;-85
2022/10/06 06:04:26;;;;;;;5.05;4.38;;;10.80;99.90;;;;;;4994147;28;20037;-86
2022/10/06 06:06:52;;;;;;;7.00;4.45;;;10.90;99.90;;;;;;4993356;28;20392;-89
2022/10/06 06:09:20;;;;;;;5.32;4.82;;;10.90;99.90;;;;;;4993977;28;20053;-87
2022/10/06 06:11:53;;;;;;;5.43;4.93;;;11.00;99.90;;;;;;4996557;28;20129;-88
2022/10/06 06:17:05;;;;;;;7.32;5.32;;;11.30;99.90;;;;;;4998904;28;20076;-87
2022/10/06 06:19:31;;;;;;;6.47;4.82;;;11.40;99.90;;;;;;4994887;28;20030;-86
2022/10/06 06:21:56;;;;;;;8.43;5.45;;;11.50;99.90;;;;;;4994225;28;20037;-86
2022/10/06 06:24:22;;;;;;;6.32;5.60;;;11.50;99.90;;;;;;4994996;28;20026;-86
2022/10/06 06:26:48;;;;;;;6.47;5.28;;;11.50;99.90;;;;;;4994340;28;20057;-86
2022/10/06 06:29:14;;;;;;;8.63;7.10;;;11.50;99.90;;;;;;4992805;28;20814;-85
2022/10/06 06:31:42;;;;;;;9.18;6.32;;;11.50;99.90;;;;;;4995210;28;20029;-85
2022/10/06 06:34:10;;;;;;;11.18;8.40;;;11.50;99.90;;;;;;4994405;28;20031;-84
2022/10/06 06:36:44;;;;;;;8.13;6.30;;;11.60;99.90;;;;;;4992349;28;20490;-85
2022/10/06 06:39:12;;;;;;;7.60;6.63;;;11.70;99.90;;;;;;4981890;28;20037;-82
2022/10/06 06:41:40;;;;;;;10.20;6.70;;;11.60;99.90;;;;;;4993758;28;20026;-85
2022/10/06 06:44:09;;;;;;;9.05;7.03;;;11.50;99.90;;;;;;4993978;28;20134;-85
2022/10/06 06:46:36;;;;;;;10.13;6.95;;;11.50;99.90;;;;;;4994777;28;20478;-85
2022/10/06 06:49:04;;;;;;;9.60;7.43;;;11.40;99.90;;;;;;4997596;28;20365;-84
2022/10/06 06:51:32;;;;;;;;;;;11.30;99.90;;;;;;5011510;28;20023;-82
2022/10/06 06:54:01;;;;;;;9.27;6.70;;;11.30;99.90;;;;;;5003418;28;19993;-85
2022/10/06 06:56:27;;;;;;;9.13;7.13;;;11.30;99.90;;;;;;4993912;28;20026;-85
2022/10/06 06:58:53;;;;;;;10.15;8.15;;;11.30;99.90;;;;;;4994206;28;20029;-83
2022/10/06 07:01:20;;;;;;;10.88;8.63;;;11.30;99.90;;;;;;4993830;28;20026;-83
2022/10/06 07:03:52;;;;;;;11.07;8.95;;;11.10;99.90;;;;;;4994245;28;20146;-84
2022/10/06 07:06:19;;;;;;;14.63;9.13;;;11.10;99.90;;;;;;4994568;28;20049;-83
2022/10/06 07:08:47;;;;;;;10.35;8.13;;;11.00;99.90;;;;;;4993704;28;20081;-86
2022/10/06 07:11:17;;;;;;;13.50;9.40;;;11.00;99.90;;;;;;4993412;28;20074;-86
2022/10/06 07:13:44;;;;;;;12.63;9.63;;;11.00;99.90;;;;;;4994984;28;20034;-84
2022/10/06 07:27:09;;;;;;;10.40;8.13;;;11.50;99.90;;;;;;4996581;28;20021;-85
2022/10/06 07:29:35;;;;;;;11.27;8.07;;;11.50;99.90;;;;;;4999236;28;20084;-86
2022/10/06 07:32:00;;;;;;;9.65;7.97;;;11.50;99.90;;;;;;5002096;28;20026;-86
2022/10/06 07:34:29;;;;;;;11.48;7.95;;;11.40;99.90;;;;;;4995550;28;20070;-85
2022/10/06 07:36:56;;;;;;;11.77;7.60;;;11.30;99.90;;;;;;4996981;28;20080;-84
2022/10/06 07:39:22;;;;;;;9.25;7.30;;;11.30;99.90;;;;;;5000138;28;20030;-84
2022/10/06 07:41:48;;;;;;;11.48;7.75;;;11.30;99.90;;;;;;5001319;28;20086;-85
2022/10/06 07:44:14;;;;;;;8.13;7.32;;;11.20;99.90;;;;;;5003474;28;20037;-80
2022/10/06 07:46:39;;;;;;;9.77;7.95;;;11.30;99.90;;;;;;5002704;28;20026;-84
2022/10/06 07:49:05;;;;;;;8.48;7.50;;;11.30;99.90;;;;;;4997125;28;20022;-84
2022/10/06 07:51:31;;;;;;;8.57;7.55;;;11.40;99.90;;;;;;4994132;28;20065;-88
2022/10/06 07:53:57;;;;;;;12.43;8.90;;;11.40;99.90;;;;;;4977518;28;20042;-85
2022/10/06 07:56:23;;;;;;;10.05;8.52;;;11.60;99.90;;;;;;4997967;28;20030;-85
2022/10/06 07:58:50;;;;;;;8.75;6.35;;;11.70;99.90;;;;;;4998573;28;20484;-84
2022/10/06 08:01:18;;;;;;;13.17;6.90;;;11.80;99.90;;;;;;5008713;28;20078;-86
2022/10/06 08:03:47;;;;;;;9.20;6.05;;;11.90;99.90;;;;;;5009135;28;20044;-87
2022/10/06 08:06:18;;;;;;;6.88;5.20;;;12.00;99.90;;;;;;4997913;28;20100;-86
2022/10/06 08:08:46;;;;;;;5.45;4.88;;;12.10;99.90;;;;;;4997679;28;20535;-85
2022/10/06 08:11:13;;;;;;;7.45;5.65;;;12.10;99.90;;;;;;4997751;28;20026;-86
2022/10/06 08:13:41;;;;;;;8.20;5.63;;;12.10;99.90;;;;;;4996061;28;20034;-86
2022/10/06 08:16:13;;;;;;;5.60;5.00;;;12.20;99.90;;;;;;4997382;28;20027;-86
2022/10/06 08:18:39;;;;;;;6.35;4.53;;;12.40;99.80;;;;;;4996260;28;20038;-85
2022/10/06 08:21:17;;;;;;;7.25;5.85;;;12.40;99.30;;;;;;4997034;28;20026;-85
2022/10/06 08:23:45;;;;;;;7.60;5.22;;;12.50;99.10;;;;;;4997654;28;20118;-87
2022/10/06 08:26:12;;;;;;;8.38;4.57;;;12.40;98.90;;;;;;4997472;28;20019;-87
2022/10/06 08:28:38;;;;;;;8.90;5.50;;;12.40;98.80;;;;;;4996180;28;20022;-86
2022/10/06 08:31:14;;;;;;;8.48;6.28;;;12.40;99.00;;;;;;4997188;28;20031;-84
2022/10/06 08:33:41;;;;;;;6.47;5.88;;;12.40;99.20;;;;;;4996197;28;20101;-84
2022/10/06 08:36:10;;;;;;;6.47;5.88;;;12.40;99.00;;;;;;4998253;28;20038;-85
2022/10/06 08:38:37;;;;;;;9.25;6.03;;;12.40;99.00;;;;;;5001513;28;20022;-86
2022/10/06 08:41:15;;;;;;;7.25;5.85;;;12.40;99.00;;;;;;5003773;28;20018;-85
2022/10/06 08:43:43;;;;;;;7.85;6.53;;;12.40;99.20;;;;;;4997777;28;20026;-86
2022/10/06 08:46:13;;;;;;;9.30;6.10;;;12.30;99.00;;;;;;4997421;28;20026;-85
2022/10/06 08:48:39;;;;;;;7.35;5.45;;;12.20;99.30;;;;;;4999145;28;20053;-86
2022/10/06 08:51:08;;;;;;;7.03;5.55;;;12.20;99.30;;;;;;5002242;28;20029;-84
2022/10/06 08:54:03;;;;;;;8.93;5.43;;;12.20;99.50;;;;;;5015845;28;20027;-83
2022/10/06 08:56:43;;;;;;;6.72;5.90;;;12.20;99.70;;;;;;4987902;28;20117;-85
2022/10/06 08:59:09;;;;;;;7.60;6.85;;;12.20;99.60;;;;;;5010767;28;20536;-85
2022/10/06 09:01:47;;;;;;;8.48;6.25;;;12.30;99.70;;;;;;4999593;28;20057;-87
2022/10/06 09:04:29;;;;;;;8.10;5.90;;;12.30;99.70;;;;;;4995532;28;20522;-86
2022/10/06 09:07:18;;;;;;;7.25;5.50;;;12.40;99.60;;;;;;4987805;28;20065;-87
2022/10/06 09:09:56;;;;;;;9.25;6.10;;;12.30;99.50;;;;;;4981833;28;20029;-85
2022/10/06 09:12:43;;;;;;;7.45;5.32;;;12.20;99.60;;;;;;4979178;28;20074;-85
2022/10/06 09:15:33;;;;;;;6.55;5.28;;;12.20;99.80;;;;;;4996398;28;20018;-86
2022/10/06 09:18:15;;;;;;;7.15;5.95;;;12.10;99.90;;;;;;4996393;28;20033;-86
2022/10/06 09:21:05;;;;;;;8.98;6.32;;;12.00;99.90;;;;;;4995964;28;20535;-85
2022/10/06 09:23:47;;;;;;;13.02;6.38;;;12.00;99.90;;;;;;4995029;28;20539;-86
2022/10/06 09:26:34;;;;;;;6.93;6.13;;;12.00;99.90;;;;;;4996782;28;20026;-87
2022/10/06 09:29:00;;;;;;;8.18;5.85;;;12.00;99.90;;;;;;4985416;28;20026;-86
2022/10/06 09:31:28;;;;;;;8.73;6.40;;;12.00;99.90;;;;;;5001080;28;20029;-87
2022/10/06 09:34:13;;;;;;;7.95;6.07;;;12.00;99.90;;;;;;4998493;28;20045;-85
2022/10/06 09:37:06;;;;;;;9.15;6.68;;;12.10;99.90;;;;;;4998229;28;20476;-85
2022/10/06 09:39:38;;;;;;;7.30;6.10;;;12.10;99.90;;;;;;4997942;28;20092;-86
2022/10/06 09:42:12;;;;;;;7.65;6.28;;;12.20;99.90;;;;;;5006242;28;20069;-85
2022/10/06 09:44:49;;;;;;;10.75;7.13;;;12.20;99.90;;;;;;5011859;28;20018;-88
2022/10/06 09:47:31;;;;;;;8.23;6.18;;;12.30;99.90;;;;;;5014829;28;20015;-85
2022/10/06 09:50:03;;;;;;;12.48;7.20;;;12.40;99.90;;;;;;5010262;28;20073;-86
2022/10/06 09:52:29;;;;;;;11.13;7.50;;;12.40;99.90;;;;;;5003163;28;20027;-85
2022/10/06 09:55:18;;;;;;;8.88;7.82;;;12.50;99.90;;;;;;4982155;28;20048;-86
2022/10/06 09:57:49;;;;;;;8.07;7.28;;;12.60;99.90;;;;;;5012656;28;20041;-85
2022/10/06 10:00:28;;;;;;;11.10;8.25;;;12.70;99.90;;;;;;4979755;28;20030;-85
2022/10/06 10:03:01;;;;;;;13.25;11.18;;;12.80;99.90;;;;;;4994577;28;20034;-85
2022/10/06 10:05:30;;;;;;;8.90;7.35;;;13.00;99.90;;;;;;4991685;28;20058;-85
2022/10/06 10:08:21;;;;;;;10.05;7.72;;;13.10;99.70;;;;;;4996528;28;20088;-86
2022/10/06 10:10:48;;;;;;;9.10;7.20;;;13.30;99.40;;;;;;4998283;28;20023;-85
2022/10/06 10:13:25;;;;;;;8.75;7.72;;;13.30;98.90;;;;;;5000869;28;20137;-86
2022/10/06 10:15:58;;;;;;;9.97;6.83;;;13.20;99.00;;;;;;4981491;28;20054;-85
2022/10/06 10:18:27;;;;;;;9.70;6.93;;;13.10;99.00;;;;;;4997541;28;20030;-85
2022/10/06 10:21:05;;;;;;;8.93;7.30;;;13.10;98.60;;;;;;4996085;28;20030;-85
2022/10/06 10:23:39;;;;;;;;;;;13.10;98.80;;;;;;4990647;28;20038;-84
2022/10/06 10:26:06;;;;;;;9.15;6.90;;;13.30;99.20;;;;;;4994986;28;20000;-85
2022/10/06 10:28:50;;;;;;;10.52;6.20;;;13.60;98.70;;;;;;4992954;28;20023;-87
2022/10/06 10:31:32;;;;;;;11.27;7.72;;;13.90;98.20;;;;;;4996627;28;20030;-85
2022/10/06 10:34:01;;;;;;;8.65;6.07;;;14.20;97.60;;;;;;5007492;28;20176;-86
2022/10/06 10:36:51;;;;;;;9.27;7.00;;;14.30;97.20;;;;;;4993785;28;20061;-86
2022/10/06 10:39:46;;;;;;;11.18;6.97;;;14.50;96.80;;;;;;4989665;28;20023;-85
2022/10/06 10:43:01;;;;;;;8.43;7.30;;;14.60;96.30;;;;;;5001300;28;20376;-85
2022/10/06 10:45:35;;;;;;;8.98;7.35;;;14.60;96.00;;;;;;4979906;28;20423;-84
2022/10/06 10:48:10;;;;;;;8.57;7.68;;;14.60;95.70;;;;;;4988521;28;20030;-83
2022/10/06 10:50:46;;;;;;;8.57;6.85;;;14.70;95.70;;;;;;5012592;28;20076;-83
2022/10/06 10:53:15;;;;;;;8.63;6.72;;;14.80;95.40;;;;;;5004234;28;20029;-83
2022/10/06 10:55:46;;;;;;;9.05;8.10;;;14.90;94.70;;;;;;5005869;28;20101;-85
2022/10/06 10:58:35;;;;;;;12.90;8.88;;;14.80;94.50;;;;;;5003074;28;20026;-85
2022/10/06 11:01:24;;;;;;;10.65;7.80;;;14.60;94.80;;;;;;4993972;28;20029;-84
2022/10/06 11:03:55;;;;;;;11.70;7.25;;;14.50;95.00;;;;;;4993719;28;20456;-85
2022/10/06 11:06:33;;;;;;;10.32;7.97;;;14.30;94.90;;;;;;4976391;28;20511;-85
2022/10/06 11:09:01;;;;;;;11.10;8.18;;;14.10;95.40;;;;;;4994156;28;20062;-85
2022/10/06 11:11:36;;;;;;;11.98;6.88;;;14.00;95.50;;;;;;4995083;28;20046;-84
2022/10/06 11:14:38;;;;;;;9.82;7.28;;;14.00;95.70;;;;;;4976614;28;20035;-86
2022/10/06 11:17:21;;;;;;;7.60;6.75;;;13.90;95.80;;;;;;4924091;28;20043;-84
2022/10/06 11:20:03;;;;;;;7.78;6.90;;;13.80;95.80;;;;;;4993836;28;20104;-84
2022/10/06 11:23:05;;;;;;;11.88;8.90;;;13.60;96.10;;;;;;4992139;28;20065;-85
2022/10/06 11:25:48;;;;;;;9.88;8.25;;;13.50;96.50;;;;;;4979918;28;20018;-85
2022/10/06 11:28:19;;;;;;;10.13;8.23;;;13.50;96.90;;;;;;4992667;28;20026;-85
2022/10/06 11:30:55;;;;;;;11.25;8.20;;;13.50;97.00;;;;;;4998031;28;20030;-84
2022/10/06 11:33:33;;;;;;;18.98;9.32;;;13.60;97.00;;;;;;5005425;28;20034;-86
2022/10/06 11:36:02;;;;;;;11.77;8.68;;;13.70;96.80;;;;;;4994849;28;20080;-85
2022/10/06 11:38:39;;;;;;;11.32;8.98;;;13.70;96.70;;;;;;5003932;28;20034;-84
2022/10/06 11:41:23;;;;;;;10.55;8.55;;;13.60;96.70;;;;;;5001364;28;20015;-85
2022/10/06 11:44:04;;;;;;;8.98;8.07;;;13.70;97.10;;;;;;4980367;28;20126;-85
2022/10/06 11:46:35;;;;;;;15.52;9.07;;;13.70;97.00;;;;;;4999672;28;20023;-85
2022/10/06 11:49:31;;;;;;;11.25;8.88;;;13.70;96.90;;;;;;4998159;28;20089;-84
2022/10/06 11:52:06;;;;;;;9.98;8.70;;;13.80;97.00;;;;;;4999918;28;20476;-84
2022/10/06 11:54:51;;;;;;;10.18;8.93;;;13.80;97.00;;;;;;4988186;28;20033;-84
2022/10/06 11:57:22;;;;;;;13.13;9.50;;;13.80;97.00;;;;;;5003857;28;20423;-85
2022/10/06 11:59:49;;;;;;;11.88;9.05;;;13.70;97.10;;;;;;5003867;28;20151;-85
2022/10/06 12:02:34;;;;;;;17.63;10.05;;;13.60;97.20;;;;;;4998652;28;20033;-85
2022/10/06 12:05:09;;;;;;;20.52;10.85;;;13.60;97.40;;;;;;5005532;28;20026;-86
2022/10/06 12:07:56;;;;;;;13.18;9.55;;;13.70;97.60;;;;;;5007969;28;20110;-86
2022/10/06 12:10:27;;;;;;;;;;;13.70;97.50;;;;;;4998902;28;20026;-84
2022/10/06 12:13:08;;;;;;;15.68;9.32;;;13.70;97.50;;;;;;4999815;28;19961;-86
2022/10/06 12:15:43;;;;;;;14.20;9.43;;;13.70;97.70;;;;;;4996821;28;20119;-85
2022/10/06 12:18:41;;;;;;;10.90;8.20;;;13.70;97.60;;;;;;4998471;28;20034;-85
2022/10/06 12:21:31;;;;;;;14.85;10.80;;;13.70;97.60;;;;;;4940151;29;20492;-87
2022/10/06 12:24:35;;;;;;;15.70;9.88;;;13.80;97.80;;;;;;4938632;29;20096;-85
2022/10/06 12:27:19;;;;;;;14.30;9.13;;;13.90;97.70;;;;;;4931934;29;20024;-84
2022/10/06 12:29:51;;;;;;;16.23;9.05;;;13.90;97.70;;;;;;4953471;29;20030;-84
2022/10/06 12:32:31;;;;;;;15.55;9.82;;;14.00;97.60;;;;;;4945916;29;20040;-88
2022/10/06 12:35:02;;;;;;;13.55;8.82;;;13.90;97.50;;;;;;4953728;29;20574;-85
2022/10/06 12:37:30;;;;;;;16.02;10.15;;;13.90;97.40;;;;;;4936584;29;20505;-86
2022/10/06 12:40:34;;;;;;;16.30;9.68;;;13.80;97.30;;;;;;4935481;29;20047;-84
2022/10/06 12:43:45;;;;;;;20.17;10.15;;;13.80;97.40;;;;;;4936317;29;20072;-85
2022/10/06 12:46:42;;;;;;;12.23;7.90;;;13.80;97.30;;;;;;4908664;29;20115;-85
2022/10/06 12:49:35;;;;;;;14.80;8.88;;;13.90;97.10;;;;;;4927502;29;20024;-84
2022/10/06 12:52:19;;;;;;;14.40;9.00;;;13.90;97.10;;;;;;4936766;29;20040;-84
2022/10/06 12:54:58;;;;;;;14.15;8.52;;;13.90;97.20;;;;;;4940084;29;20020;-84
2022/10/06 12:57:29;;;;;;;12.75;8.43;;;13.90;97.10;;;;;;4976968;28;20082;-83
2022/10/06 12:59:56;;;;;;;13.10;9.35;;;13.80;97.10;;;;;;4995546;28;20117;-85
2022/10/06 13:02:26;;;;;;;14.93;9.68;;;13.80;97.10;;;;;;4981827;28;20034;-83
2022/10/06 13:05:01;;;;;;;15.18;9.73;;;13.70;97.20;;;;;;5003400;28;20049;-84
2022/10/06 13:07:32;;;;;;;11.90;8.70;;;13.70;97.40;;;;;;4996063;28;20045;-85
2022/10/06 13:10:13;;;;;;;14.13;10.43;;;13.70;97.20;;;;;;4995659;28;20085;-85
2022/10/06 13:12:46;;;;;;;15.20;10.20;;;13.70;97.30;;;;;;4995126;28;20047;-84
2022/10/06 13:15:26;;;;;;;18.67;10.15;;;13.70;97.40;;;;;;4995974;28;20037;-84
2022/10/06 13:17:54;;;;;;;20.25;10.65;;;13.80;97.60;;;;;;4995409;28;20396;-86
2022/10/06 13:20:35;;;;;;;15.13;9.32;;;13.70;97.50;;;;;;4995798;28;20053;-87
2022/10/06 13:23:25;;;;;;;17.50;10.52;;;13.70;97.30;;;;;;4997069;28;20034;-84
2022/10/06 13:25:58;;;;;;;16.02;9.07;;;13.60;97.40;;;;;;4985787;28;20030;-84
2022/10/06 13:28:42;;;;;;;13.20;9.27;;;13.60;97.40;;;;;;5002233;28;20096;-84
2022/10/06 13:31:17;;;;;;;12.70;7.75;;;13.50;97.40;;;;;;4995078;28;20038;-84